Station Historical Data
Daily Summary for November 11, 2017 Units:  Metric    English   Both
« Previous Day
Next Day »
Daily Weekly Monthly Yearly Custom
  High: Low: Average:
Temperature: 2.1 °C -8.1 °C -2.7 °C
Dew Point: -7.5 °C -10.6 °C -8.9 °C
Humidity: 85% 43% 64%
Wind Speed: 16.1km/h 0km/h 2.4km/h
Wind Gust: 25.7km/h - -
Wind- - ESE
Pressure: 1038.8 hPa 1028.7 hPa -
Precipitation: 0 mm    
Historical Graphs
 
 
Tabular Data for November 11, 2017
Time Temperature Dew Point Pressure Wind Wind Speed Wind Gust Humidity Rainfall Rate (Hourly)
00:04 -5.9 °C -10.2 °C 1037.1 hPa Calm   4.8 km/h 72% 0 mm
00:09 -6.1 °C -10.1 °C 1037.1 hPa Calm   4.8 km/h 73% 0 mm
00:14 -6.1 °C -10.1 °C 1037.1 hPa West 1.6 km/h 4.8 km/h 73% 0 mm
00:19 -6.1 °C -10.2 °C 1037.1 hPa Calm     73% 0 mm
00:24 -6.2 °C -10.2 °C 1037.1 hPa Calm   4.8 km/h 73% 0 mm
00:29 -6.3 °C -10.3 °C 1037.1 hPa Calm     73% 0 mm
00:34 -6.4 °C -10.3 °C 1037.1 hPa Calm     74% 0 mm
00:39 -6.6 °C -10.4 °C 1037.1 hPa Calm     74% 0 mm
00:44 -6.7 °C -10.6 °C 1036.8 hPa Calm     74% 0 mm
00:49 -6.8 °C -10.5 °C 1037.1 hPa Calm     75% 0 mm
00:54 -7 °C -10.5 °C 1037.1 hPa Calm     76% 0 mm
00:59 -7.1 °C -10.6 °C 1037.1 hPa Calm     76% 0 mm
01:04 -7.1 °C -10.4 °C 1037.5 hPa Calm     77% 0 mm
01:09 -7.1 °C -10.4 °C 1037.5 hPa Calm     77% 0 mm
01:14 -7.2 °C -10.5 °C 1037.5 hPa Calm     77% 0 mm
01:19 -7.2 °C -10.6 °C 1037.1 hPa Calm     77% 0 mm
01:24 -7.3 °C -10.6 °C 1037.1 hPa Calm     77% 0 mm
01:29 -7.3 °C -10.5 °C 1037.1 hPa Calm     78% 0 mm
01:34 -7.4 °C -10.6 °C 1037.1 hPa Calm     78% 0 mm
01:39 -7.3 °C -10.3 °C 1037.1 hPa Calm     79% 0 mm
01:44 -7.2 °C -10.2 °C 1037.1 hPa Calm     79% 0 mm
01:49 -7.1 °C -10.1 °C 1037.1 hPa Calm     79% 0 mm
01:54 -7.1 °C -10.1 °C 1037.1 hPa Calm     79% 0 mm
01:59 -6.9 °C -9.8 °C 1037.5 hPa Calm     80% 0 mm
02:04 -6.8 °C -9.8 °C 1037.8 hPa Calm     79% 0 mm
02:09 -6.7 °C -9.7 °C 1037.5 hPa Calm     79% 0 mm
02:14 -6.6 °C -9.7 °C 1037.5 hPa Calm     79% 0 mm
02:19 -6.6 °C -9.7 °C 1037.8 hPa Calm     79% 0 mm
02:24 -6.6 °C -9.7 °C 1037.8 hPa Calm     79% 0 mm
02:29 -6.6 °C -9.6 °C 1037.5 hPa Calm     79% 0 mm
02:34 -6.5 °C -9.6 °C 1037.5 hPa Calm     79% 0 mm
02:39 -6.4 °C -9.5 °C 1037.5 hPa Calm     79% 0 mm
02:44 -6.5 °C -9.6 °C 1037.5 hPa Calm     79% 0 mm
02:49 -6.4 °C -9.5 °C 1037.5 hPa Calm     79% 0 mm
02:54 -6.4 °C -9.5 °C 1037.5 hPa Calm     79% 0 mm
02:59 -6.3 °C -9.4 °C 1037.5 hPa Calm     79% 0 mm
03:04 -6.3 °C -9.3 °C 1037.5 hPa Calm     79% 0 mm
03:09 -6.3 °C -9.3 °C 1037.5 hPa Calm     79% 0 mm
03:14 -6.2 °C -9.3 °C 1037.5 hPa Calm     79% 0 mm
03:19 -6.2 °C -9.3 °C 1037.5 hPa Calm     79% 0 mm
03:24 -6.2 °C -9.2 °C 1037.5 hPa Calm     79% 0 mm
03:29 -6.3 °C -9.4 °C 1037.5 hPa Calm     79% 0 mm
03:34 -6.4 °C -9.4 °C 1037.5 hPa Calm     79% 0 mm
03:39 -6.5 °C -9.6 °C 1037.5 hPa Calm     79% 0 mm
03:44 -6.4 °C -9.3 °C 1037.5 hPa Calm     80% 0 mm
03:49 -6.4 °C -9.4 °C 1037.5 hPa Calm     79% 0 mm
03:54 -6.4 °C -9.4 °C 1037.5 hPa Calm     79% 0 mm
03:59 -6.4 °C -9.5 °C 1037.5 hPa Calm     79% 0 mm
04:04 -6.6 °C -9.6 °C 1037.5 hPa Calm     79% 0 mm
04:09 -6.6 °C -9.4 °C 1037.5 hPa Calm     80% 0 mm
04:14 -6.6 °C -9.5 °C 1037.5 hPa Calm     80% 0 mm
04:19 -6.7 °C -9.6 °C 1037.5 hPa Calm     80% 0 mm
04:24 -6.8 °C -9.7 °C 1037.5 hPa Calm     80% 0 mm
04:29 -6.9 °C -9.6 °C 1037.5 hPa Calm     81% 0 mm
04:34 -7.1 °C -9.8 °C 1037.5 hPa Calm     81% 0 mm
04:39 -7.2 °C -9.9 °C 1037.5 hPa Calm     81% 0 mm
04:44 -7.3 °C -9.9 °C 1037.5 hPa Calm     82% 0 mm
04:49 -7.4 °C -9.9 °C 1037.5 hPa Calm     82% 0 mm
04:54 -7.5 °C -10.1 °C 1037.5 hPa Calm     82% 0 mm
04:59 -7.7 °C -10.2 °C 1037.5 hPa Calm     82% 0 mm
05:04 -7.8 °C -10.2 °C 1037.5 hPa Calm     83% 0 mm
05:09 -7.8 °C -10.2 °C 1037.5 hPa Calm     83% 0 mm
05:14 -7.9 °C -10.3 °C 1037.5 hPa Calm     83% 0 mm
05:19 -7.7 °C -9.9 °C 1037.5 hPa Calm     84% 0 mm
05:24 -7.6 °C -9.8 °C 1037.5 hPa Calm     84% 0 mm
05:29 -7.6 °C -10 °C 1037.5 hPa Calm     83% 0 mm
05:34 -7.6 °C -9.9 °C 1037.5 hPa Calm     83% 0 mm
05:39 -7.6 °C -9.9 °C 1037.5 hPa Calm     83% 0 mm
05:44 -7.6 °C -9.8 °C 1037.5 hPa Calm     84% 0 mm
05:49 -7.6 °C -10 °C 1037.5 hPa Calm     83% 0 mm
05:54 -7.7 °C -10.1 °C 1037.8 hPa Calm     83% 0 mm
05:59 -7.9 °C -10.3 °C 1037.5 hPa Calm     83% 0 mm
06:04 -7.9 °C -10.2 °C 1037.5 hPa Calm     84% 0 mm
06:09 -7.9 °C -10.2 °C 1037.5 hPa Calm     84% 0 mm
06:14 -8 °C -10.2 °C 1037.5 hPa Calm     84% 0 mm
06:19 -7.9 °C -10.2 °C 1037.5 hPa Calm     84% 0 mm
06:24 -8 °C -10.2 °C 1037.8 hPa Calm     84% 0 mm
06:29 -8 °C -10.2 °C 1037.8 hPa Calm     84% 0 mm
06:34 -7.9 °C -10.2 °C 1037.8 hPa Calm     84% 0 mm
06:39 -8 °C -10.2 °C 1037.8 hPa Calm     84% 0 mm
06:44 -8.1 °C -10.3 °C 1037.8 hPa Calm     84% 0 mm
06:49 -8 °C -10.2 °C 1037.8 hPa Calm     84% 0 mm
06:54 -8 °C -10.2 °C 1037.8 hPa Calm     84% 0 mm
06:59 -7.9 °C -10.2 °C 1037.8 hPa Calm     84% 0 mm
07:04 -8.1 °C -10.3 °C 1037.8 hPa Calm     84% 0 mm
07:09 -8.1 °C -10.3 °C 1037.5 hPa Calm     84% 0 mm
07:14 -8.1 °C -10.2 °C 1037.8 hPa Calm     85% 0 mm
07:19 -8.1 °C -10.1 °C 1037.8 hPa Calm     85% 0 mm
07:24 -8.1 °C -10.3 °C 1037.8 hPa Calm     84% 0 mm
07:29 -8 °C -10.1 °C 1038.1 hPa Calm     85% 0 mm
07:34 -7.9 °C -9.9 °C 1038.1 hPa Calm     85% 0 mm
07:39 -7.9 °C -10.1 °C 1038.1 hPa Calm     84% 0 mm
07:44 -7.8 °C -10 °C 1038.1 hPa Calm     84% 0 mm
07:49 -7.6 °C -9.7 °C 1038.1 hPa Calm     85% 0 mm
07:54 -7.4 °C -9.6 °C 1038.5 hPa Calm     84% 0 mm
07:59 -7.2 °C -9.4 °C 1038.5 hPa Calm   4.8 km/h 84% 0 mm
08:04 -6.9 °C -9.2 °C 1038.1 hPa Calm   4.8 km/h 84% 0 mm
08:09 -6.7 °C -9.1 °C 1038.5 hPa Calm   3.2 km/h 83% 0 mm
08:14 -6.5 °C -9.1 °C 1038.5 hPa Calm     82% 0 mm
08:19 -6.2 °C -8.8 °C 1038.5 hPa West 1.6 km/h 3.2 km/h 82% 0 mm
08:24 -6 °C -8.7 °C 1038.5 hPa WSW 1.6 km/h 1.6 km/h 81% 0 mm
08:29 -5.9 °C -8.9 °C 1038.5 hPa Calm   4.8 km/h 79% 0 mm
08:34 -5.8 °C -8.9 °C 1038.5 hPa Calm   4.8 km/h 79% 0 mm
08:39 -5.7 °C -8.9 °C 1038.5 hPa Calm   3.2 km/h 78% 0 mm
08:44 -5.6 °C -8.9 °C 1038.5 hPa South 1.6 km/h 4.8 km/h 77% 0 mm
08:49 -5.4 °C -8.8 °C 1038.5 hPa South 1.6 km/h 4.8 km/h 77% 0 mm
08:54 -5.3 °C -8.8 °C 1038.5 hPa South 3.2 km/h 4.8 km/h 76% 0 mm
08:59 -5.2 °C -8.7 °C 1038.5 hPa Calm   3.2 km/h 76% 0 mm
09:04 -4.9 °C -8.5 °C 1038.8 hPa South 1.6 km/h 3.2 km/h 76% 0 mm
09:09 -4.8 °C -8.7 °C 1038.5 hPa Calm   4.8 km/h 74% 0 mm
09:14 -4.4 °C -8.2 °C 1038.5 hPa Calm   3.2 km/h 75% 0 mm
09:19 -4.1 °C -8.2 °C 1038.5 hPa Calm   4.8 km/h 73% 0 mm
09:24 -3.9 °C -8 °C 1038.5 hPa ESE 3.2 km/h 6.4 km/h 73% 0 mm
09:29 -3.8 °C -8.3 °C 1038.5 hPa East 1.6 km/h 9.7 km/h 71% 0 mm
09:34 -3.7 °C -8.3 °C 1038.1 hPa Calm   8 km/h 70% 0 mm
09:39 -3.2 °C -7.7 °C 1038.1 hPa ENE 3.2 km/h 8 km/h 71% 0 mm
09:44 -3.1 °C -7.8 °C 1038.1 hPa East 3.2 km/h 9.7 km/h 70% 0 mm
09:49 -2.9 °C -8 °C 1037.8 hPa SE 6.4 km/h 16.1 km/h 68% 0 mm
09:54 -2.8 °C -8.1 °C 1037.8 hPa East 3.2 km/h 11.3 km/h 67% 0 mm
09:59 -2.4 °C -7.9 °C 1037.8 hPa East 4.8 km/h 12.9 km/h 66% 0 mm
10:04 -2.4 °C -8.1 °C 1037.8 hPa ENE 11.3 km/h 12.9 km/h 65% 0 mm
10:09 -2.3 °C -8 °C 1037.5 hPa East 6.4 km/h 14.5 km/h 65% 0 mm
10:14 -2 °C -7.7 °C 1037.5 hPa ENE 4.8 km/h 12.9 km/h 65% 0 mm
10:19 -2 °C -7.9 °C 1037.1 hPa East 3.2 km/h 14.5 km/h 64% 0 mm
10:24 -1.9 °C -8 °C 1037.1 hPa SE 6.4 km/h 17.7 km/h 63% 0 mm
10:29 -1.8 °C -7.9 °C 1037.1 hPa NE 8 km/h 14.5 km/h 63% 0 mm
10:34 -1.5 °C -7.6 °C 1037.1 hPa NE 6.4 km/h 12.9 km/h 63% 0 mm
10:39 -1.3 °C -7.7 °C 1037.1 hPa ENE 6.4 km/h 16.1 km/h 62% 0 mm
10:44 -1.2 °C -7.8 °C 1037.1 hPa East 6.4 km/h 16.1 km/h 61% 0 mm
10:49 -0.9 °C -7.9 °C 1036.8 hPa ESE 11.3 km/h 14.5 km/h 59% 0 mm
10:54 -0.8 °C -8.2 °C 1036.8 hPa SE 4.8 km/h 16.1 km/h 57% 0 mm
10:59 -0.8 °C -8.5 °C 1036.5 hPa SE 8 km/h 16.1 km/h 56% 0 mm
11:04 -0.9 °C -8.6 °C 1036.5 hPa East 8 km/h 20.9 km/h 56% 0 mm
11:09 -0.3 °C -7.8 °C 1036.1 hPa East 8 km/h 20.9 km/h 57% 0 mm
11:14 -0.3 °C -8.5 °C 1036.1 hPa ESE 6.4 km/h 20.9 km/h 54% 0 mm
11:19 -0.1 °C -8.3 °C 1036.1 hPa East 6.4 km/h 14.5 km/h 54% 0 mm
11:24 0.3 °C -8.2 °C 1035.8 hPa East 8 km/h 16.1 km/h 53% 0 mm
11:29 -0.1 °C -8.6 °C 1035.8 hPa ENE 11.3 km/h 17.7 km/h 53% 0 mm
11:34 -0.2 °C -8.6 °C 1035.8 hPa East 9.7 km/h 17.7 km/h 53% 0 mm
11:39 -0.2 °C -8.1 °C 1035.4 hPa East 8 km/h 17.7 km/h 55% 0 mm
11:44 0.4 °C -8.3 °C 1035.4 hPa East 4.8 km/h 12.9 km/h 52% 0 mm
11:49 0.6 °C -8.4 °C 1035.1 hPa East 9.7 km/h 17.7 km/h 51% 0 mm
11:54 0.7 °C -8.6 °C 1035.1 hPa SE 3.2 km/h 19.3 km/h 50% 0 mm
11:59 0.7 °C -8.6 °C 1034.8 hPa ESE 8 km/h 20.9 km/h 50% 0 mm
12:04 0.7 °C -8.1 °C 1034.8 hPa East 8 km/h 25.7 km/h 52% 0 mm
12:09 0.5 °C -8.7 °C 1034.4 hPa ENE 8 km/h 16.1 km/h 50% 0 mm
12:14 0.4 °C -8.6 °C 1034.4 hPa East 8 km/h 16.1 km/h 51% 0 mm
12:19 0.5 °C -8.5 °C 1034.4 hPa East 16.1 km/h 20.9 km/h 51% 0 mm
12:24 0.6 °C -8.7 °C 1034.4 hPa East 8 km/h 20.9 km/h 50% 0 mm
12:29 0.7 °C -8.6 °C 1034.1 hPa East 1.6 km/h 14.5 km/h 50% 0 mm
12:34 1.1 °C -8.5 °C 1034.1 hPa SE 6.4 km/h 20.9 km/h 49% 0 mm
12:39 1.1 °C -8.2 °C 1034.1 hPa South 1.6 km/h 20.9 km/h 50% 0 mm
12:44 1.3 °C -7.7 °C 1034.1 hPa ENE 8 km/h 14.5 km/h 51% 0 mm
12:49 1.1 °C -8.4 °C 1033.7 hPa East 9.7 km/h 17.7 km/h 49% 0 mm
12:54 1.1 °C -8.9 °C 1033.7 hPa ENE 9.7 km/h 20.9 km/h 47% 0 mm
12:59 1 °C -9.1 °C 1033.7 hPa ENE 9.7 km/h 20.9 km/h 47% 0 mm
13:04 1.2 °C -8.9 °C 1033.7 hPa ENE 6.4 km/h 19.3 km/h 47% 0 mm
13:09 1.4 °C -9 °C 1033.4 hPa ENE 8 km/h 19.3 km/h 46% 0 mm
13:14 1.7 °C -8.4 °C 1033.4 hPa SSE 4.8 km/h 12.9 km/h 47% 0 mm
13:19 1.6 °C -8.6 °C 1033.4 hPa SE 4.8 km/h 11.3 km/h 47% 0 mm
13:24 1.6 °C -9.7 °C 1033.4 hPa ESE 3.2 km/h 11.3 km/h 43% 0 mm
13:29 1.8 °C -8.9 °C 1033.4 hPa SE 4.8 km/h 11.3 km/h 45% 0 mm
13:34 1.7 °C -9.6 °C 1033.4 hPa ESE 4.8 km/h 12.9 km/h 43% 0 mm
13:39 1.5 °C -9.7 °C 1033.4 hPa East 11.3 km/h 17.7 km/h 43% 0 mm
13:44 1.7 °C -8.9 °C 1033.1 hPa SE 1.6 km/h 11.3 km/h 45% 0 mm
13:49 1.8 °C -9.5 °C 1033.1 hPa NE 6.4 km/h 12.9 km/h 43% 0 mm
13:54 1.8 °C -9.5 °C 1033.1 hPa Calm   14.5 km/h 43% 0 mm
13:59 1.9 °C -9.1 °C 1033.1 hPa East 4.8 km/h 14.5 km/h 44% 0 mm
14:04 1.9 °C -9.4 °C 1033.1 hPa ENE 4.8 km/h 16.1 km/h 43% 0 mm
14:09 2.1 °C -8.9 °C 1033.1 hPa NNE 4.8 km/h 16.1 km/h 44% 0 mm
14:14 1.9 °C -9.4 °C 1033.1 hPa SSE 8 km/h 20.9 km/h 43% 0 mm
14:19 1.3 °C -9.6 °C 1032.7 hPa ESE 6.4 km/h 16.1 km/h 44% 0 mm
14:24 1.2 °C -9.4 °C 1032.7 hPa SE 4.8 km/h 16.1 km/h 45% 0 mm
14:29 1.6 °C -9.4 °C 1032.7 hPa ESE 4.8 km/h 14.5 km/h 44% 0 mm
14:34 1.6 °C -9.7 °C 1032.7 hPa ESE 4.8 km/h 14.5 km/h 43% 0 mm
14:39 1.8 °C -9.5 °C 1032.7 hPa East 3.2 km/h 11.3 km/h 43% 0 mm
14:44 2.1 °C -8.9 °C 1032.7 hPa East 4.8 km/h 11.3 km/h 44% 0 mm
14:49 2.1 °C -8.9 °C 1032.7 hPa SE 6.4 km/h 12.9 km/h 44% 0 mm
14:54 2.1 °C -9.2 °C 1032.4 hPa East 9.7 km/h 9.7 km/h 43% 0 mm
14:59 2 °C -9 °C 1032.4 hPa SE 3.2 km/h 12.9 km/h 44% 0 mm
15:04 1.9 °C -9.4 °C 1032.1 hPa ESE 4.8 km/h 11.3 km/h 43% 0 mm
15:09 1.9 °C -8.8 °C 1032.1 hPa South 8 km/h 11.3 km/h 45% 0 mm
15:14 1.8 °C -8.9 °C 1031.7 hPa East 3.2 km/h 12.9 km/h 45% 0 mm
15:19 1.8 °C -9.2 °C 1031.7 hPa East 4.8 km/h 12.9 km/h 44% 0 mm
15:24 1.7 °C -8.7 °C 1031.7 hPa East 4.8 km/h 12.9 km/h 46% 0 mm
15:29 1.7 °C -8.7 °C 1031.7 hPa East 4.8 km/h 12.9 km/h 46% 0 mm
15:34 1.6 °C -9.1 °C 1031.7 hPa ESE 3.2 km/h 11.3 km/h 45% 0 mm
15:39 1.7 °C -8.7 °C 1031.7 hPa ESE 3.2 km/h 11.3 km/h 46% 0 mm
15:44 1.4 °C -8.9 °C 1031.7 hPa ENE 1.6 km/h 12.9 km/h 46% 0 mm
15:49 1.5 °C -8.9 °C 1031.7 hPa East 1.6 km/h 8 km/h 46% 0 mm
15:54 1.6 °C -8.8 °C 1031.7 hPa ENE 1.6 km/h 8 km/h 46% 0 mm
15:59 1.4 °C -9 °C 1031.7 hPa East 3.2 km/h 12.9 km/h 46% 0 mm
16:04 1.3 °C -8.8 °C 1031.7 hPa ENE 3.2 km/h 9.7 km/h 47% 0 mm
16:09 1.2 °C -8.7 °C 1031.7 hPa SE 3.2 km/h 8 km/h 48% 0 mm
16:14 1.2 °C -8.9 °C 1031.7 hPa SE 4.8 km/h 8 km/h 47% 0 mm
16:19 1.2 °C -8.6 °C 1031.4 hPa SE 3.2 km/h 8 km/h 48% 0 mm
16:24 1.2 °C -8.7 °C 1031.4 hPa ESE 3.2 km/h 8 km/h 48% 0 mm
16:29 1.1 °C -8.7 °C 1031.4 hPa East 4.8 km/h 11.3 km/h 48% 0 mm
16:34 1 °C -8.8 °C 1031.4 hPa East 8 km/h 11.3 km/h 48% 0 mm
16:39 0.9 °C -8.8 °C 1031 hPa ENE 3.2 km/h 11.3 km/h 48% 0 mm
16:44 0.9 °C -8.6 °C 1031 hPa Calm   9.7 km/h 49% 0 mm
16:49 0.9 °C -8.6 °C 1031 hPa East 4.8 km/h 11.3 km/h 49% 0 mm
16:54 0.8 °C -8.7 °C 1031 hPa East 3.2 km/h 11.3 km/h 49% 0 mm
16:59 0.7 °C -8.6 °C 1031 hPa East 3.2 km/h 9.7 km/h 50% 0 mm
17:04 0.6 °C -8.4 °C 1031 hPa East 3.2 km/h 9.7 km/h 51% 0 mm
17:09 0.5 °C -8.2 °C 1031 hPa ENE 1.6 km/h 4.8 km/h 52% 0 mm
17:14 0.3 °C -8.2 °C 1031 hPa ENE 3.2 km/h 6.4 km/h 53% 0 mm
17:19 0.2 °C -8.2 °C 1031 hPa NE 1.6 km/h 6.4 km/h 53% 0 mm
17:24 0.2 °C -8.2 °C 1031 hPa ENE 3.2 km/h 8 km/h 53% 0 mm
17:29 0.1 °C -8.1 °C 1031 hPa ENE 3.2 km/h 8 km/h 54% 0 mm
17:34 0.1 °C -8.1 °C 1031 hPa ENE 3.2 km/h 8 km/h 54% 0 mm
17:39 0 °C -8.2 °C 1031 hPa ENE 3.2 km/h 6.4 km/h 54% 0 mm
17:44 0 °C -8.2 °C 1031 hPa East 4.8 km/h 8 km/h 54% 0 mm
17:49 -0.1 °C -8.3 °C 1031 hPa NE 3.2 km/h 8 km/h 54% 0 mm
17:54 -0.1 °C -8.3 °C 1031 hPa East 3.2 km/h 8 km/h 54% 0 mm
17:59 -0.1 °C -8.3 °C 1031 hPa East 3.2 km/h 8 km/h 54% 0 mm
18:04 -0.1 °C -8.3 °C 1031 hPa East 3.2 km/h 8 km/h 54% 0 mm
18:09 -0.2 °C -8.4 °C 1031 hPa ENE 3.2 km/h 8 km/h 54% 0 mm
18:14 -0.2 °C -8.4 °C 1031 hPa ENE 3.2 km/h 8 km/h 54% 0 mm
18:19 -0.2 °C -8.4 °C 1030.7 hPa East 1.6 km/h 9.7 km/h 54% 0 mm
18:24 -0.2 °C -8.4 °C 1030.7 hPa ENE 3.2 km/h 9.7 km/h 54% 0 mm
18:29 -0.2 °C -8.4 °C 1030.7 hPa Calm   11.3 km/h 54% 0 mm
18:34 -0.2 °C -8.4 °C 1030.7 hPa East 1.6 km/h 8 km/h 54% 0 mm
18:39 -0.2 °C -8.4 °C 1030.7 hPa East 8 km/h 9.7 km/h 54% 0 mm
18:44 -0.1 °C -8.6 °C 1030.7 hPa East 1.6 km/h 11.3 km/h 53% 0 mm
18:49 -0.1 °C -8.3 °C 1030.4 hPa ENE 8 km/h 8 km/h 54% 0 mm
18:54 -0.1 °C -8.3 °C 1030.4 hPa ENE 3.2 km/h 11.3 km/h 54% 0 mm
18:59 -0.2 °C -8.4 °C 1030.4 hPa ENE 3.2 km/h 11.3 km/h 54% 0 mm
19:04 -0.2 °C -8.2 °C 1030.4 hPa ENE 4.8 km/h 12.9 km/h 55% 0 mm
19:09 -0.3 °C -8.2 °C 1030.4 hPa ENE 3.2 km/h 12.9 km/h 55% 0 mm
19:14 -0.3 °C -8.3 °C 1030.4 hPa East 3.2 km/h 11.3 km/h 55% 0 mm
19:19 -0.4 °C -8.1 °C 1030.4 hPa East 4.8 km/h 11.3 km/h 56% 0 mm
19:24 -0.4 °C -8.2 °C 1030.4 hPa Calm   9.7 km/h 56% 0 mm
19:29 -0.4 °C -8.4 °C 1030.4 hPa East 3.2 km/h 11.3 km/h 55% 0 mm
19:34 -0.5 °C -8.4 °C 1030.4 hPa NE 1.6 km/h 11.3 km/h 55% 0 mm
19:39 -0.5 °C -8.4 °C 1030.4 hPa East 4.8 km/h 12.9 km/h 55% 0 mm
19:44 -0.5 °C -8.4 °C 1030.4 hPa East 3.2 km/h 12.9 km/h 55% 0 mm
19:49 -0.6 °C -8.3 °C 1030 hPa ESE 3.2 km/h 8 km/h 56% 0 mm
19:54 -0.6 °C -8.3 °C 1030 hPa SE 1.6 km/h 8 km/h 56% 0 mm
19:59 -0.6 °C -8.3 °C 1030 hPa SE 3.2 km/h 11.3 km/h 56% 0 mm
20:04 -0.6 °C -8.3 °C 1030 hPa SE 3.2 km/h 11.3 km/h 56% 0 mm
20:09 -0.6 °C -8.1 °C 1030.4 hPa SE 3.2 km/h 9.7 km/h 57% 0 mm
20:14 -0.6 °C -8.1 °C 1030.4 hPa SE 1.6 km/h 8 km/h 57% 0 mm
20:19 -0.7 °C -8.2 °C 1030.4 hPa SE 3.2 km/h 8 km/h 57% 0 mm
20:24 -0.7 °C -8.2 °C 1030.4 hPa SE 1.6 km/h 8 km/h 57% 0 mm
20:29 -0.7 °C -8.2 °C 1030.4 hPa Calm   4.8 km/h 57% 0 mm
20:34 -0.7 °C -7.9 °C 1030.4 hPa Calm   4.8 km/h 58% 0 mm
20:39 -0.7 °C -7.9 °C 1030 hPa Calm     58% 0 mm
20:44 -0.7 °C -7.9 °C 1030 hPa Calm   4.8 km/h 58% 0 mm
20:49 -0.8 °C -7.8 °C 1030 hPa East 4.8 km/h 8 km/h 59% 0 mm
20:54 -0.7 °C -7.7 °C 1029.7 hPa ENE 4.8 km/h 8 km/h 59% 0 mm
20:59 -0.8 °C -7.8 °C 1029.7 hPa ESE 1.6 km/h 6.4 km/h 59% 0 mm
21:04 -0.8 °C -7.6 °C 1029.7 hPa ESE 1.6 km/h 6.4 km/h 60% 0 mm
21:09 -0.8 °C -7.6 °C 1029.7 hPa SE 1.6 km/h 6.4 km/h 60% 0 mm
21:14 -0.9 °C -7.7 °C 1029.3 hPa SE 1.6 km/h 6.4 km/h 60% 0 mm
21:19 -0.9 °C -7.7 °C 1029.3 hPa Calm   6.4 km/h 60% 0 mm
21:24 -0.9 °C -7.5 °C 1029.3 hPa Calm     61% 0 mm
21:29 -0.9 °C -7.5 °C 1029.3 hPa Calm   3.2 km/h 61% 0 mm
21:34 -0.8 °C -7.6 °C 1029.3 hPa Calm   3.2 km/h 60% 0 mm
21:39 -0.8 °C -7.6 °C 1029 hPa Calm   3.2 km/h 60% 0 mm
21:44 -0.6 °C -7.7 °C 1029 hPa Calm   8 km/h 59% 0 mm
21:49 -0.4 °C -7.7 °C 1029 hPa Calm     58% 0 mm
21:54 -0.3 °C -7.8 °C 1029.3 hPa Calm     57% 0 mm
21:59 -0.3 °C -8 °C 1029.3 hPa Calm   4.8 km/h 56% 0 mm
22:04 -0.3 °C -8 °C 1029 hPa SSE 1.6 km/h 6.4 km/h 56% 0 mm
22:09 -0.2 °C -8.2 °C 1029 hPa SSE 3.2 km/h 9.7 km/h 55% 0 mm
22:19 -0.3 °C -8.5 °C 1029 hPa South 4.8 km/h 8 km/h 54% 0 mm
22:24 -0.3 °C -8.2 °C 1029 hPa SSE 3.2 km/h 8 km/h 55% 0 mm
22:34 -0.6 °C -8.1 °C 1029 hPa SSE 1.6 km/h 6.4 km/h 57% 0 mm
22:39 -0.7 °C -8.2 °C 1028.7 hPa SSE 1.6 km/h 8 km/h 57% 0 mm
22:44 -0.8 °C -8.2 °C 1028.7 hPa SSE 1.6 km/h 8 km/h 57% 0 mm
22:49 -0.8 °C -8.3 °C 1028.7 hPa South 3.2 km/h 8 km/h 57% 0 mm
22:54 -0.8 °C -8.3 °C 1029 hPa Calm   11.3 km/h 57% 0 mm
22:59 -0.9 °C -8.4 °C 1028.7 hPa Calm   1.6 km/h 57% 0 mm
23:04 -1 °C -8.4 °C 1029 hPa Calm   1.6 km/h 57% 0 mm
23:09 -1.2 °C -8.4 °C 1028.7 hPa Calm     58% 0 mm
23:14 -1.4 °C -8.4 °C 1029 hPa Calm     59% 0 mm
23:19 -1.6 °C -8.3 °C 1028.7 hPa Calm     60% 0 mm
23:24 -1.6 °C -8.3 °C 1028.7 hPa Calm     60% 0 mm
23:29 -1.8 °C -8.4 °C 1029 hPa Calm     61% 0 mm
23:34 -2.1 °C -8.2 °C 1029 hPa Calm     63% 0 mm
23:39 -2.3 °C -8.2 °C 1029 hPa Calm     64% 0 mm
23:44 -2.3 °C -8 °C 1029 hPa Calm     65% 0 mm
23:49 -2.3 °C -8.2 °C 1029 hPa Calm     64% 0 mm
23:54 -2.2 °C -7.9 °C 1029 hPa Calm     65% 0 mm
23:59 -2 °C -7.9 °C 1029 hPa Calm     64% 0 mm
Buffalo, New York, USA
Compliments of Weather Underground - 2.5 mb